createdAt,value
2019-01-02T00:01:05.692Z,8.43
2019-01-02T00:03:46.599Z,7.27
2019-01-02T00:06:27.265Z,9.50
2019-01-02T00:09:07.992Z,10.90
2019-01-02T00:11:48.785Z,8.83
2019-01-02T00:14:29.892Z,6.80
2019-01-02T00:17:11.429Z,6.47
2019-01-02T00:19:51.945Z,8.43
2019-01-02T00:22:32.599Z,8.03
2019-01-02T00:25:13.229Z,8.30
2019-01-02T00:27:53.841Z,11.07
2019-01-02T00:30:34.749Z,7.93
2019-01-02T00:33:15.666Z,5.93
2019-01-02T00:35:56.212Z,7.97
2019-01-02T00:38:36.784Z,8.43
2019-01-02T00:41:17.648Z,7.87
2019-01-02T00:43:58.671Z,6.43
2019-01-02T00:46:39.527Z,7.47
2019-01-02T00:49:20.482Z,5.50
2019-01-02T00:54:43.476Z,12.10
2019-01-02T00:57:24.540Z,8.00
2019-01-02T01:00:05.453Z,11.57
2019-01-02T01:02:46.546Z,9.43
2019-01-02T01:05:27.324Z,10.30
2019-01-02T01:08:08.180Z,8.00
2019-01-02T01:13:31.478Z,6.13
2019-01-02T01:16:12.565Z,9.60
2019-01-02T01:18:56.670Z,9.97
2019-01-02T01:21:36.899Z,12.70
2019-01-02T01:24:15.997Z,8.63
2019-01-02T01:27:03.773Z,7.40
2019-01-02T01:29:51.626Z,14.97
2019-01-02T01:32:39.400Z,12.17
2019-01-02T01:35:27.231Z,10.10
2019-01-02T01:38:15.389Z,8.17
2019-01-02T01:40:57.602Z,14.90
2019-01-02T01:43:38.570Z,11.73
2019-01-02T01:46:19.470Z,16.70
2019-01-02T01:49:00.297Z,8.33
2019-01-02T01:51:41.148Z,12.10
2019-01-02T01:54:21.711Z,8.27
2019-01-02T01:57:02.362Z,6.63
2019-01-02T01:59:43.105Z,8.47
2019-01-02T02:02:24.076Z,9.13
2019-01-02T02:05:04.897Z,8.80
2019-01-02T02:07:45.636Z,8.13
2019-01-02T02:10:26.393Z,9.87
2019-01-02T02:13:07.114Z,7.07
2019-01-02T02:15:47.758Z,6.13
2019-01-02T02:18:28.328Z,11.17
2019-01-02T02:21:09.260Z,8.67
2019-01-02T02:23:49.743Z,10.30
2019-01-02T02:26:30.568Z,6.93
2019-01-02T02:29:11.073Z,11.93
2019-01-02T02:31:51.700Z,10.80
2019-01-02T02:34:32.424Z,14.03
2019-01-02T02:37:13.190Z,8.27
2019-01-02T02:39:53.955Z,8.73
2019-01-02T02:42:34.950Z,11.47
2019-01-02T02:45:15.624Z,7.97
2019-01-02T02:47:56.313Z,9.63
2019-01-02T02:50:37.073Z,9.17
2019-01-02T02:53:18.428Z,9.77
2019-01-02T02:55:58.934Z,9.40
2019-01-02T02:58:39.860Z,14.70
2019-01-02T03:01:20.465Z,10.87
2019-01-02T03:03:59.592Z,10.17
2019-01-02T03:06:49.566Z,13.17
2019-01-02T03:09:37.184Z,14.30
2019-01-02T03:12:26.651Z,12.20
2019-01-02T03:15:14.411Z,12.17
2019-01-02T03:18:02.148Z,14.90
2019-01-02T03:20:49.883Z,9.40
2019-01-02T03:23:37.652Z,12.17
2019-01-02T03:26:25.419Z,13.27
2019-01-02T03:29:13.175Z,10.10
2019-01-02T03:32:02.632Z,11.33
2019-01-02T03:34:52.119Z,13.87
2019-01-02T03:37:39.861Z,9.77
2019-01-02T03:40:20.491Z,9.33
2019-01-02T03:43:00.886Z,17.33
2019-01-02T03:45:41.160Z,11.40
2019-01-02T03:48:21.938Z,13.83
2019-01-02T03:51:02.779Z,10.43
2019-01-02T03:53:43.549Z,8.53
2019-01-02T03:56:24.407Z,12.70
2019-01-02T03:59:04.991Z,10.57
2019-01-02T04:01:46.066Z,11.53
2019-01-02T04:04:26.702Z,10.97
2019-01-02T04:07:07.499Z,12.63
2019-01-02T04:09:47.960Z,11.80
2019-01-02T04:12:28.696Z,13.53
2019-01-02T04:15:07.834Z,16.00
2019-01-02T04:17:55.578Z,15.43
2019-01-02T04:20:43.347Z,13.23
2019-01-02T04:23:31.101Z,14.47
2019-01-02T04:26:18.861Z,8.67
2019-01-02T04:29:06.609Z,12.67
2019-01-02T04:31:54.412Z,13.40
2019-01-02T04:34:42.157Z,13.23
2019-01-02T04:37:29.905Z,12.20
2019-01-02T04:40:10.582Z,11.33
2019-01-02T04:42:50.963Z,10.97
2019-01-02T04:45:31.803Z,10.67
2019-01-02T04:48:12.574Z,11.37
2019-01-02T04:50:53.243Z,13.03
2019-01-02T04:53:33.766Z,13.07
2019-01-02T04:56:14.370Z,16.10
2019-01-02T04:58:55.299Z,11.70
2019-01-02T05:01:36.346Z,17.40
2019-01-02T05:06:59.524Z,16.37
2019-01-02T05:12:22.407Z,14.30
2019-01-02T05:15:02.986Z,19.57
2019-01-02T05:17:43.710Z,13.57
2019-01-02T05:20:24.487Z,15.80
2019-01-02T05:23:05.128Z,14.63
2019-01-02T05:25:46.036Z,17.67
2019-01-02T05:28:26.868Z,12.87
2019-01-02T05:31:07.742Z,13.53
2019-01-02T05:33:48.314Z,12.40
2019-01-02T05:36:28.751Z,8.97
2019-01-02T05:39:09.651Z,10.37
2019-01-02T05:41:50.737Z,12.10
2019-01-02T05:44:31.176Z,13.77
2019-01-02T05:47:11.771Z,10.57
2019-01-02T05:49:52.660Z,12.97
2019-01-02T05:52:33.366Z,10.43
2019-01-02T05:55:14.132Z,11.63
2019-01-02T05:57:55.040Z,16.27
2019-01-02T06:00:39.849Z,11.83
2019-01-02T06:03:17.888Z,17.13
2019-01-02T06:05:58.724Z,17.20
2019-01-02T06:08:39.517Z,14.90
2019-01-02T06:11:20.302Z,12.13
2019-01-02T06:14:01.048Z,13.53
2019-01-02T06:16:41.556Z,15.17
2019-01-02T06:19:21.995Z,14.70
2019-01-02T06:22:02.588Z,14.43
2019-01-02T06:24:43.322Z,8.87
2019-01-02T06:27:24.438Z,10.00
2019-01-02T06:30:05.304Z,9.07
2019-01-02T06:32:46.171Z,13.00
2019-01-02T06:38:08.841Z,8.90
2019-01-02T06:40:49.779Z,8.57
2019-01-02T06:43:30.653Z,9.50
2019-01-02T06:46:11.302Z,14.23
2019-01-02T06:48:52.331Z,11.97
2019-01-02T06:51:32.541Z,11.40
2019-01-02T06:54:13.017Z,11.50
2019-01-02T06:56:53.797Z,11.30
2019-01-02T06:59:34.529Z,11.97
2019-01-02T07:02:15.321Z,14.53
2019-01-02T07:04:56.300Z,10.90
2019-01-02T07:07:37.309Z,18.73
2019-01-02T07:10:17.730Z,10.87
2019-01-02T07:12:58.805Z,14.10
2019-01-02T07:15:39.509Z,10.80
2019-01-02T07:18:20.034Z,10.10
2019-01-02T07:21:00.924Z,10.40
2019-01-02T07:23:41.663Z,15.37
2019-01-02T07:26:22.582Z,13.07
2019-01-02T07:29:03.160Z,15.27
2019-01-02T07:31:43.753Z,17.20
2019-01-02T07:34:24.534Z,13.60
2019-01-02T07:37:05.629Z,11.03
2019-01-02T07:39:46.508Z,16.70
2019-01-02T07:42:26.927Z,12.70
2019-01-02T07:45:07.704Z,14.53
2019-01-02T07:47:48.260Z,17.17
2019-01-02T07:50:28.743Z,10.53
2019-01-02T07:53:09.534Z,11.13
2019-01-02T07:55:50.317Z,18.20
2019-01-02T07:58:30.894Z,15.20
2019-01-02T08:01:11.882Z,14.37
2019-01-02T08:03:52.682Z,18.47
2019-01-02T08:06:33.419Z,9.23
2019-01-02T08:09:14.324Z,10.43
2019-01-02T08:11:55.201Z,13.00
2019-01-02T08:14:35.790Z,14.67
2019-01-02T08:17:16.573Z,12.93
2019-01-02T08:19:57.146Z,13.03
2019-01-02T08:22:37.905Z,9.83
2019-01-02T08:25:18.264Z,20.23
2019-01-02T08:27:58.906Z,12.10
2019-01-02T08:30:39.984Z,14.00
2019-01-02T08:33:20.826Z,14.87
2019-01-02T08:36:01.567Z,18.63
2019-01-02T08:38:42.290Z,19.33
2019-01-02T08:41:22.782Z,16.43
2019-01-02T08:44:03.431Z,13.87
2019-01-02T08:46:44.463Z,15.57
2019-01-02T08:49:25.073Z,8.27
2019-01-02T08:52:05.767Z,15.30
2019-01-02T08:54:46.593Z,15.70
2019-01-02T08:57:27.119Z,17.03
2019-01-02T09:00:08.075Z,12.53
2019-01-02T09:02:48.938Z,12.20
2019-01-02T09:05:29.506Z,13.27
2019-01-02T09:08:10.348Z,16.87
2019-01-02T09:10:51.006Z,16.20
2019-01-02T09:13:31.508Z,8.40
2019-01-02T09:16:12.139Z,12.53
2019-01-02T09:18:53.111Z,20.00
2019-01-02T09:21:33.689Z,12.43
2019-01-02T09:24:14.575Z,16.33
2019-01-02T09:26:55.417Z,14.07
2019-01-02T09:29:36.278Z,14.37
2019-01-02T09:32:16.845Z,16.43
2019-01-02T09:34:57.336Z,16.40
2019-01-02T09:37:38.136Z,15.07
2019-01-02T09:40:18.924Z,12.23
2019-01-02T09:42:59.715Z,17.73
2019-01-02T09:45:40.603Z,16.03
2019-01-02T09:48:21.345Z,18.40
2019-01-02T09:51:02.309Z,15.60
2019-01-02T09:53:43.011Z,15.53
2019-01-02T09:56:23.600Z,12.10
2019-01-02T09:59:05.248Z,17.30
2019-01-02T10:01:45.812Z,15.73
2019-01-02T10:04:26.589Z,16.40
2019-01-02T10:07:07.270Z,8.63
2019-01-02T10:09:47.712Z,12.73
2019-01-02T10:12:28.204Z,13.37
2019-01-02T10:15:08.905Z,15.07
2019-01-02T10:17:49.809Z,11.60
2019-01-02T10:20:30.480Z,13.93
2019-01-02T10:23:11.147Z,12.60
2019-01-02T10:25:52.317Z,15.00
2019-01-02T10:28:33.328Z,23.17
2019-01-02T10:31:14.215Z,10.80
2019-01-02T10:33:54.611Z,14.70
2019-01-02T10:36:35.504Z,11.00
2019-01-02T10:39:16.285Z,15.70
2019-01-02T10:41:56.772Z,15.10
2019-01-02T10:44:37.504Z,15.13
2019-01-02T10:47:18.408Z,12.90
2019-01-02T10:49:59.067Z,15.53
2019-01-02T10:52:40.010Z,14.67
2019-01-02T10:55:20.559Z,11.60
2019-01-02T10:58:01.353Z,14.97
2019-01-02T11:00:42.453Z,10.87
2019-01-02T11:03:23.086Z,11.80
2019-01-02T11:06:03.583Z,15.60
2019-01-02T11:08:44.486Z,14.63
2019-01-02T11:11:25.418Z,10.77
2019-01-02T11:14:06.205Z,11.00
2019-01-02T11:16:47.077Z,15.80
2019-01-02T11:19:27.802Z,9.93
2019-01-02T11:22:08.517Z,14.73
2019-01-02T11:24:49.492Z,10.73
2019-01-02T11:27:30.226Z,12.83
2019-01-02T11:30:10.792Z,8.70
2019-01-02T11:32:51.239Z,14.87
2019-01-02T11:35:32.199Z,14.00
2019-01-02T11:38:13.106Z,10.83
2019-01-02T11:40:53.820Z,13.43
2019-01-02T11:43:34.792Z,8.93
2019-01-02T11:46:15.696Z,14.27
2019-01-02T11:48:56.218Z,15.37
2019-01-02T11:51:37.325Z,15.90
2019-01-02T11:54:18.300Z,11.67
2019-01-02T11:56:59.279Z,9.80
2019-01-02T11:59:40.030Z,14.27
2019-01-02T12:02:21.105Z,12.60
2019-01-02T12:05:01.588Z,16.20
2019-01-02T12:07:42.701Z,13.30
2019-01-02T12:10:23.804Z,11.30
2019-01-02T12:13:04.577Z,13.10
2019-01-02T12:15:45.390Z,14.13
2019-01-02T12:18:25.965Z,10.70
2019-01-02T12:21:06.992Z,9.50
2019-01-02T12:23:47.456Z,13.63
2019-01-02T12:26:28.319Z,11.73
2019-01-02T12:29:09.128Z,11.27
2019-01-02T12:31:50.225Z,14.63
2019-01-02T12:34:30.952Z,12.20
2019-01-02T12:37:11.388Z,10.50
2019-01-02T12:39:52.317Z,16.00
2019-01-02T12:42:33.383Z,17.30
2019-01-02T12:45:13.946Z,13.10
2019-01-02T12:47:54.631Z,8.67
2019-01-02T12:50:35.431Z,13.93
2019-01-02T12:53:16.413Z,13.40
2019-01-02T12:55:57.173Z,10.80
2019-01-02T12:58:37.958Z,12.10
2019-01-02T13:01:18.641Z,18.67
2019-01-02T13:03:59.448Z,12.60
2019-01-02T13:06:40.173Z,11.63
2019-01-02T13:09:21.084Z,13.83
2019-01-02T13:12:01.765Z,6.20
2019-01-02T13:14:42.475Z,11.83
2019-01-02T13:17:23.483Z,12.57
2019-01-02T13:20:04.142Z,11.83
2019-01-02T13:22:44.736Z,15.77
2019-01-02T13:25:25.816Z,13.00
2019-01-02T13:28:06.611Z,12.57
2019-01-02T13:30:47.324Z,8.53
2019-01-02T13:33:28.218Z,12.13
2019-01-02T13:36:08.881Z,12.63
2019-01-02T13:38:49.427Z,19.83
2019-01-02T13:41:30.607Z,13.67
2019-01-02T13:44:11.512Z,10.57
2019-01-02T13:46:52.565Z,15.40
2019-01-02T13:49:33.258Z,9.43
2019-01-02T13:52:13.781Z,11.83
2019-01-02T13:54:54.492Z,7.00
2019-01-02T13:57:35.055Z,11.00
2019-01-02T14:00:16.013Z,4.47
2019-01-02T14:02:56.382Z,9.07
2019-01-02T14:05:37.242Z,7.37
2019-01-02T14:08:18.111Z,9.73
2019-01-02T14:10:58.778Z,8.40
2019-01-02T14:13:39.602Z,10.47
2019-01-02T14:16:20.186Z,11.13
2019-01-02T14:19:00.970Z,9.50
2019-01-02T14:21:41.592Z,11.50
2019-01-02T14:24:22.027Z,7.97
2019-01-02T14:27:02.868Z,13.23
2019-01-02T14:29:43.534Z,10.77
2019-01-02T14:32:24.391Z,13.30
2019-01-02T14:35:04.974Z,12.03
2019-01-02T14:37:45.585Z,11.10
2019-01-02T14:40:26.451Z,10.13
2019-01-02T14:43:07.233Z,9.47
2019-01-02T14:45:47.758Z,6.10
2019-01-02T14:48:28.409Z,6.47
2019-01-02T14:51:08.844Z,10.57
2019-01-02T14:53:49.294Z,12.73
2019-01-02T14:56:30.032Z,10.27
2019-01-02T14:59:10.886Z,10.93
2019-01-02T15:01:51.377Z,8.77
2019-01-02T15:04:31.683Z,10.80
2019-01-02T15:07:12.502Z,9.30
2019-01-02T15:09:53.094Z,12.33
2019-01-02T15:12:33.947Z,9.10
2019-01-02T15:15:14.528Z,7.10
2019-01-02T15:17:55.214Z,10.43
2019-01-02T15:20:35.761Z,9.07
2019-01-02T15:23:16.752Z,11.23
2019-01-02T15:25:57.545Z,13.23
2019-01-02T15:28:38.035Z,14.40
2019-01-02T15:31:18.910Z,7.47
2019-01-02T15:33:59.442Z,10.43
2019-01-02T15:36:40.072Z,8.60
2019-01-02T15:39:20.461Z,8.23
2019-01-02T15:42:01.038Z,11.33
2019-01-02T15:44:41.786Z,8.93
2019-01-02T15:47:22.391Z,6.43
2019-01-02T15:50:03.064Z,11.77
2019-01-02T15:52:43.996Z,13.53
2019-01-02T15:55:24.675Z,9.50
2019-01-02T15:58:05.729Z,10.20
2019-01-02T16:00:46.315Z,13.40
2019-01-02T16:03:26.822Z,11.77
2019-01-02T16:06:07.268Z,14.67
2019-01-02T16:08:46.025Z,13.83
2019-01-02T16:11:33.817Z,11.00
2019-01-02T16:14:21.577Z,11.10
2019-01-02T16:17:09.366Z,7.90
2019-01-02T16:19:57.112Z,13.80
2019-01-02T16:22:44.879Z,9.63
2019-01-02T16:25:32.639Z,11.10
2019-01-02T16:28:01.087Z,11.97
2019-01-02T16:30:41.593Z,13.43
2019-01-02T16:33:22.060Z,11.53
2019-01-02T16:36:02.448Z,13.37
2019-01-02T16:38:43.434Z,11.13
2019-01-02T16:41:24.472Z,9.40
2019-01-02T16:44:04.882Z,11.13
2019-01-02T16:46:45.600Z,15.67
2019-01-02T16:49:26.376Z,17.13
2019-01-02T16:52:07.092Z,11.30
2019-01-02T16:54:47.976Z,10.93
2019-01-02T16:57:29.039Z,12.93
2019-01-02T17:00:09.733Z,17.53
2019-01-02T17:02:50.355Z,12.03
2019-01-02T17:05:30.999Z,13.47
2019-01-02T17:08:11.991Z,13.73
2019-01-02T17:10:52.763Z,15.93
2019-01-02T17:13:33.228Z,14.77
2019-01-02T17:16:13.972Z,12.77
2019-01-02T17:18:54.706Z,13.63
2019-01-02T17:21:35.518Z,12.30
2019-01-02T17:24:15.820Z,14.43
2019-01-02T17:26:56.487Z,14.70
2019-01-02T17:29:36.982Z,13.97
2019-01-02T17:32:17.496Z,10.97
2019-01-02T17:34:58.144Z,11.50
2019-01-02T17:37:38.677Z,13.50
2019-01-02T17:40:19.424Z,12.73
2019-01-02T17:43:00.700Z,13.87
2019-01-02T17:45:41.707Z,15.37
2019-01-02T17:48:22.449Z,14.07
2019-01-02T17:51:03.046Z,13.07
2019-01-02T17:53:43.953Z,12.23
2019-01-02T17:56:24.713Z,17.37
2019-01-02T17:59:05.391Z,16.27
2019-01-02T18:01:46.193Z,14.63
2019-01-02T18:04:26.803Z,18.63
2019-01-02T18:07:07.472Z,18.03
2019-01-02T18:09:48.232Z,18.53
2019-01-02T18:12:28.945Z,17.17
2019-01-02T18:15:09.149Z,15.17
2019-01-02T18:17:49.801Z,13.50
2019-01-02T18:20:30.374Z,18.37
2019-01-02T18:23:10.886Z,16.00
2019-01-02T18:25:51.633Z,14.17
2019-01-02T18:28:32.377Z,16.80
2019-01-02T18:31:13.162Z,12.13
2019-01-02T18:33:53.951Z,14.90
2019-01-02T18:36:34.888Z,17.03
2019-01-02T18:39:15.349Z,15.20
2019-01-02T18:41:55.923Z,15.57
2019-01-02T18:44:36.796Z,19.10
2019-01-02T18:47:17.608Z,20.43
2019-01-02T18:49:58.040Z,23.97
2019-01-02T18:52:38.667Z,21.77
2019-01-02T18:55:19.101Z,20.47
2019-01-02T18:57:59.909Z,17.77
2019-01-02T19:00:40.998Z,16.97
2019-01-02T19:03:21.840Z,18.87
2019-01-02T19:06:02.728Z,19.00
2019-01-02T19:08:43.271Z,33.00
2019-01-02T19:11:24.052Z,48.17
2019-01-02T19:14:04.844Z,36.63
2019-01-02T19:16:45.319Z,22.30
2019-01-02T19:19:26.244Z,22.53
2019-01-02T19:22:06.927Z,19.17
2019-01-02T19:24:47.616Z,17.37
2019-01-02T19:27:28.349Z,16.07
2019-01-02T19:30:08.773Z,15.70
2019-01-02T19:32:49.582Z,18.77
2019-01-02T19:35:30.562Z,17.77
2019-01-02T19:38:11.003Z,16.03
2019-01-02T19:40:51.997Z,18.13
2019-01-02T19:43:32.389Z,20.60
2019-01-02T19:46:13.337Z,22.73
2019-01-02T19:48:53.748Z,15.23
2019-01-02T19:51:34.155Z,18.57
2019-01-02T19:54:14.665Z,20.40
2019-01-02T19:56:55.214Z,20.10
2019-01-02T19:59:35.542Z,17.73
2019-01-02T20:02:16.097Z,19.03
2019-01-02T20:04:56.965Z,17.93
2019-01-02T20:07:37.490Z,18.23
2019-01-02T20:10:18.110Z,21.93
2019-01-02T20:12:58.725Z,15.90
2019-01-02T20:15:40.091Z,18.40
2019-01-02T20:18:20.544Z,17.27
2019-01-02T20:21:01.508Z,17.07
2019-01-02T20:23:42.301Z,20.57
2019-01-02T20:26:23.139Z,12.37
2019-01-02T20:29:04.113Z,16.70
2019-01-02T20:31:45.000Z,13.47
2019-01-02T20:34:25.606Z,17.93
2019-01-02T20:37:06.149Z,15.57
2019-01-02T20:39:46.655Z,15.37
2019-01-02T20:42:27.439Z,18.67
2019-01-02T20:45:08.280Z,23.20
2019-01-02T20:47:49.213Z,17.27
2019-01-02T20:50:29.992Z,20.03
2019-01-02T20:53:10.649Z,24.87
2019-01-02T20:55:51.405Z,24.87
2019-01-02T20:58:32.124Z,27.03
2019-01-02T21:01:12.381Z,20.23
2019-01-02T21:03:53.109Z,21.33
2019-01-02T21:06:33.844Z,22.43
2019-01-02T21:09:14.538Z,24.77
2019-01-02T21:11:55.528Z,24.23
2019-01-02T21:14:36.071Z,27.87
2019-01-02T21:17:16.866Z,24.93
2019-01-02T21:19:57.303Z,23.10
2019-01-02T21:22:38.068Z,25.00
2019-01-02T21:25:19.004Z,24.17
2019-01-02T21:27:59.511Z,19.30
2019-01-02T21:30:40.314Z,27.37
2019-01-02T21:33:21.140Z,23.30
2019-01-02T21:36:01.849Z,22.07
2019-01-02T21:38:42.207Z,27.07
2019-01-02T21:41:22.751Z,24.53
2019-01-02T21:44:03.375Z,26.90
2019-01-02T21:46:43.847Z,22.63
2019-01-02T21:49:24.934Z,26.93
2019-01-02T21:52:05.752Z,31.77
2019-01-02T21:54:46.851Z,25.60
2019-01-02T21:57:27.429Z,37.93
2019-01-02T22:00:08.441Z,32.93
2019-01-02T22:02:48.882Z,33.73
2019-01-02T22:05:29.534Z,25.53
2019-01-02T22:08:10.115Z,26.63
2019-01-02T22:10:50.617Z,21.43
2019-01-02T22:13:31.629Z,22.07
2019-01-02T22:16:12.152Z,30.10
2019-01-02T22:18:52.759Z,23.83
2019-01-02T22:21:33.463Z,27.23
2019-01-02T22:24:14.265Z,33.10
2019-01-02T22:26:55.178Z,36.47
2019-01-02T22:29:35.975Z,31.77
2019-01-02T22:32:16.679Z,30.53
2019-01-02T22:34:57.457Z,33.63
2019-01-02T22:37:38.141Z,25.70
2019-01-02T22:40:19.843Z,34.20
2019-01-02T22:43:00.793Z,25.77
2019-01-02T22:45:41.385Z,22.67
2019-01-02T22:48:22.066Z,24.93
2019-01-02T22:51:02.453Z,21.53
2019-01-02T22:53:43.004Z,22.67
2019-01-02T22:56:23.668Z,20.55
2019-01-02T22:59:04.728Z,19.23
2019-01-02T23:01:46.697Z,19.87
2019-01-02T23:04:29.276Z,19.03
2019-01-02T23:07:14.631Z,24.20
2019-01-02T23:13:09.155Z,19.27
2019-01-02T23:15:54.643Z,21.23
2019-01-02T23:22:02.220Z,15.80
2019-01-02T23:24:47.434Z,17.30
2019-01-02T23:27:46.925Z,16.73
2019-01-02T23:30:47.028Z,15.43
2019-01-02T23:33:31.803Z,20.47
2019-01-02T23:39:26.012Z,17.48
2019-01-02T23:42:08.026Z,23.10
2019-01-02T23:45:08.170Z,19.98
2019-01-02T23:47:50.211Z,17.60
2019-01-02T23:50:35.592Z,14.77
2019-01-02T23:53:18.147Z,24.03
2019-01-02T23:56:03.695Z,21.20
2019-01-02T23:58:46.213Z,20.88
